Time;durP1;ratioP1;P1;durP2;ratioP2;P2;SDS_P1;SDS_P2;PMS_P1;PMS_P2;Temp;Humidity;BMP_temperature;BMP_pressure;BME280_temperature;BME280_humidity;BME280_pressure;Samples;Min_cycle;Max_cycle;Signal;HPM_P1;HPM_P2
2023/12/02 00:00:05;;;;;;;27.90;11.88;;;;;;;;;;5073391;28;20479;-27
2023/12/02 00:02:31;;;;;;;29.55;11.77;;;;;;;;;;5073562;28;20024;-26
2023/12/02 00:04:56;;;;;;;28.17;12.17;;;;;;;;;;5073891;28;20016;-27
2023/12/02 00:07:21;;;;;;;25.27;11.23;;;;;;;;;;5074137;28;20346;-27
2023/12/02 00:09:46;;;;;;;28.00;11.85;;;;;;;;;;5073538;28;20107;-27
2023/12/02 00:12:11;;;;;;;30.35;12.07;;;;;;;;;;5072184;28;20081;-27
2023/12/02 00:14:37;;;;;;;28.77;11.77;;;;;;;;;;5073781;28;20025;-27
2023/12/02 00:17:02;;;;;;;28.83;11.53;;;;;;;;;;5073502;28;20533;-27
2023/12/02 00:19:27;;;;;;;29.80;12.82;;;;;;;;;;5072655;28;20251;-27
2023/12/02 00:21:52;;;;;;;31.40;12.47;;;;;;;;;;5073649;28;20023;-27
2023/12/02 00:24:17;;;;;;;30.90;12.38;;;;;;;;;;5073331;28;20251;-27
2023/12/02 00:26:43;;;;;;;31.55;12.55;;;;;;;;;;5073663;28;20074;-27
2023/12/02 00:29:08;;;;;;;31.55;13.70;;;;;;;;;;5073372;28;20516;-27
2023/12/02 00:31:33;;;;;;;26.15;12.20;;;;;;;;;;5073331;28;20020;-27
2023/12/02 00:33:58;;;;;;;34.28;12.85;;;;;;;;;;5073257;28;20104;-27
2023/12/02 00:36:23;;;;;;;30.33;12.13;;;;;;;;;;5073553;28;20456;-27
2023/12/02 00:38:49;;;;;;;28.25;12.13;;;;;;;;;;5073241;28;20129;-27
2023/12/02 00:41:14;;;;;;;28.33;12.55;;;;;;;;;;5073182;28;20021;-27
2023/12/02 00:43:39;;;;;;;31.10;12.57;;;;;;;;;;5073179;28;20056;-27
2023/12/02 00:46:04;;;;;;;31.00;12.60;;;;;;;;;;5073890;28;20253;-27
2023/12/02 00:48:30;;;;;;;29.67;12.70;;;;;;;;;;5073685;28;20287;-27
2023/12/02 00:50:55;;;;;;;29.88;12.75;;;;;;;;;;5073153;28;20381;-27
2023/12/02 00:53:20;;;;;;;27.13;12.63;;;;;;;;;;5071811;28;20316;-27
2023/12/02 00:55:45;;;;;;;27.53;12.27;;;;;;;;;;5073044;28;20247;-27
2023/12/02 00:58:10;;;;;;;29.83;12.47;;;;;;;;;;5073075;28;20255;-27
2023/12/02 01:00:35;;;;;;;31.65;12.85;;;;;;;;;;5072854;28;20490;-27
2023/12/02 01:03:01;;;;;;;34.33;13.37;;;;;;;;;;5073023;28;20022;-27
2023/12/02 01:05:26;;;;;;;32.67;12.90;;;;;;;;;;5073256;28;20308;-27
2023/12/02 01:07:51;;;;;;;33.13;13.93;;;;;;;;;;5073471;28;20013;-27
2023/12/02 01:10:16;;;;;;;29.88;12.63;;;;;;;;;;5072958;28;20765;-27
2023/12/02 01:12:41;;;;;;;33.28;13.75;;;;;;;;;;5073075;28;20109;-27
2023/12/02 01:15:07;;;;;;;31.75;13.07;;;;;;;;;;5073171;28;20028;-27
2023/12/02 01:17:32;;;;;;;32.67;13.27;;;;;;;;;;5073368;28;20040;-27
2023/12/02 01:19:57;;;;;;;32.17;12.90;;;;;;;;;;5073301;28;20044;-27
2023/12/02 01:22:22;;;;;;;31.77;13.43;;;;;;;;;;5073317;28;20255;-27
2023/12/02 01:24:47;;;;;;;34.33;13.97;;;;;;;;;;5072832;28;20043;-27
2023/12/02 01:27:13;;;;;;;29.35;12.77;;;;;;;;;;5073278;28;20269;-27
2023/12/02 01:29:38;;;;;;;29.70;13.18;;;;;;;;;;5073155;28;20486;-27
2023/12/02 01:32:03;;;;;;;30.13;12.93;;;;;;;;;;5076696;28;20021;-27
2023/12/02 01:34:30;;;;;;;34.03;13.57;;;;;;;;;;5076268;28;20020;-27
2023/12/02 01:36:55;;;;;;;30.95;13.00;;;;;;;;;;5076300;28;20012;-27
2023/12/02 01:39:20;;;;;;;31.87;13.33;;;;;;;;;;5076263;28;20096;-27
2023/12/02 01:41:45;;;;;;;28.10;12.48;;;;;;;;;;5076696;28;20328;-27
2023/12/02 01:44:11;;;;;;;28.23;12.73;;;;;;;;;;5076259;28;20020;-27
2023/12/02 01:46:36;;;;;;;28.52;12.65;;;;;;;;;;5076163;28;20259;-27
2023/12/02 01:49:02;;;;;;;30.85;13.13;;;;;;;;;;5076340;28;20013;-27
2023/12/02 01:51:27;;;;;;;31.98;13.82;;;;;;;;;;5076094;28;20475;-27
2023/12/02 01:53:53;;;;;;;32.20;13.88;;;;;;;;;;5076097;28;20021;-27
2023/12/02 01:56:18;;;;;;;31.38;13.07;;;;;;;;;;5076025;28;20016;-27
2023/12/02 01:58:44;;;;;;;32.25;13.98;;;;;;;;;;5075747;28;20017;-27
2023/12/02 02:01:09;;;;;;;33.35;13.73;;;;;;;;;;5076112;28;20356;-27
2023/12/02 02:03:34;;;;;;;37.47;14.68;;;;;;;;;;5076441;28;20019;-26
2023/12/02 02:06:00;;;;;;;29.83;12.98;;;;;;;;;;5075894;28;20088;-27
2023/12/02 02:08:25;;;;;;;34.75;13.57;;;;;;;;;;5075738;28;20463;-27
2023/12/02 02:10:56;;;;;;;30.92;12.88;;;;;;;;;;5076259;28;20359;-27
2023/12/02 02:13:22;;;;;;;29.88;12.77;;;;;;;;;;5075164;28;20020;-27
2023/12/02 02:15:47;;;;;;;31.88;13.25;;;;;;;;;;5073484;28;20036;-27
2023/12/02 02:18:12;;;;;;;34.07;13.33;;;;;;;;;;5073698;28;20029;-27
2023/12/02 02:20:37;;;;;;;33.80;13.30;;;;;;;;;;5073536;28;20294;-27
2023/12/02 02:23:02;;;;;;;33.40;12.57;;;;;;;;;;5073431;28;20016;-26
2023/12/02 02:25:28;;;;;;;30.10;12.75;;;;;;;;;;5073264;28;20265;-27
2023/12/02 02:27:53;;;;;;;31.83;12.07;;;;;;;;;;5073309;28;20044;-27
2023/12/02 02:30:18;;;;;;;30.67;12.88;;;;;;;;;;5074925;28;20078;-27
2023/12/02 02:32:44;;;;;;;31.13;11.70;;;;;;;;;;5075268;28;20058;-27
2023/12/02 02:35:09;;;;;;;30.38;11.77;;;;;;;;;;5075471;28;20020;-27
2023/12/02 02:37:34;;;;;;;31.27;12.87;;;;;;;;;;5075745;28;20027;-27
2023/12/02 02:39:59;;;;;;;30.85;12.40;;;;;;;;;;5075045;28;20726;-27
2023/12/02 02:42:24;;;;;;;34.00;12.73;;;;;;;;;;5075008;28;20032;-26
2023/12/02 02:44:49;;;;;;;33.13;13.17;;;;;;;;;;5075030;28;20349;-27
2023/12/02 02:47:14;;;;;;;34.70;12.27;;;;;;;;;;5075578;28;20372;-26
2023/12/02 02:49:40;;;;;;;28.25;12.20;;;;;;;;;;5075231;28;20020;-27
2023/12/02 02:52:05;;;;;;;30.77;12.63;;;;;;;;;;5074905;28;20020;-27
2023/12/02 02:54:30;;;;;;;32.33;12.77;;;;;;;;;;5075364;28;20062;-27
2023/12/02 02:56:55;;;;;;;26.90;12.10;;;;;;;;;;5074838;28;20041;-26
2023/12/02 02:59:20;;;;;;;30.30;12.32;;;;;;;;;;5074972;28;20107;-27
2023/12/02 03:01:47;;;;;;;31.23;13.23;;;;;;;;;;5075193;28;20032;-27
2023/12/02 03:04:12;;;;;;;29.25;12.43;;;;;;;;;;5074952;28;20074;-27
2023/12/02 03:06:37;;;;;;;29.05;11.85;;;;;;;;;;5074811;28;20016;-27
2023/12/02 03:09:05;;;;;;;32.83;12.93;;;;;;;;;;5074586;28;20468;-27
2023/12/02 03:11:30;;;;;;;31.42;13.32;;;;;;;;;;5074665;28;20271;-27
2023/12/02 03:13:55;;;;;;;30.15;12.35;;;;;;;;;;5074470;28;20447;-27
2023/12/02 03:16:20;;;;;;;31.60;12.43;;;;;;;;;;5074400;28;20479;-27
2023/12/02 03:18:45;;;;;;;31.35;11.88;;;;;;;;;;5074398;28;20255;-27
2023/12/02 03:21:11;;;;;;;31.92;13.35;;;;;;;;;;5074742;28;20020;-27
2023/12/02 03:23:36;;;;;;;30.55;12.23;;;;;;;;;;5074580;28;20074;-27
2023/12/02 03:26:01;;;;;;;29.77;12.93;;;;;;;;;;5074297;28;20519;-27
2023/12/02 03:28:27;;;;;;;36.17;12.43;;;;;;;;;;5074916;28;20266;-27
2023/12/02 03:30:52;;;;;;;31.60;12.75;;;;;;;;;;5074453;28;20333;-27
2023/12/02 03:33:18;;;;;;;32.58;13.18;;;;;;;;;;5074445;28;20028;-27
2023/12/02 03:35:43;;;;;;;33.33;12.48;;;;;;;;;;5074288;28;20028;-27
2023/12/02 03:38:08;;;;;;;31.20;13.57;;;;;;;;;;5074308;28;20103;-26
2023/12/02 03:40:34;;;;;;;30.90;12.63;;;;;;;;;;5074191;28;20024;-27
2023/12/02 03:42:59;;;;;;;29.00;12.53;;;;;;;;;;5074453;28;20016;-27
2023/12/02 03:45:24;;;;;;;28.23;11.60;;;;;;;;;;5074080;28;20563;-26
2023/12/02 03:47:49;;;;;;;28.20;11.77;;;;;;;;;;5073787;28;20027;-27
2023/12/02 03:50:14;;;;;;;33.03;12.60;;;;;;;;;;5073712;28;20027;-27
2023/12/02 03:52:40;;;;;;;29.42;12.13;;;;;;;;;;5073734;28;20103;-27
2023/12/02 03:55:05;;;;;;;31.17;12.82;;;;;;;;;;5073692;28;20028;-27
2023/12/02 03:57:30;;;;;;;34.28;13.20;;;;;;;;;;5074006;28;20379;-27
2023/12/02 03:59:56;;;;;;;33.95;13.68;;;;;;;;;;5073389;28;20484;-27
2023/12/02 04:02:22;;;;;;;36.05;13.88;;;;;;;;;;5074192;28;20020;-27
2023/12/02 04:04:47;;;;;;;27.88;12.02;;;;;;;;;;5073898;28;20017;-27
2023/12/02 04:07:13;;;;;;;32.13;12.30;;;;;;;;;;5073895;28;20020;-27
2023/12/02 04:09:38;;;;;;;33.95;14.27;;;;;;;;;;5073931;28;20778;-27
2023/12/02 04:12:03;;;;;;;32.30;13.10;;;;;;;;;;5073811;28;20008;-27
2023/12/02 04:14:29;;;;;;;33.05;13.25;;;;;;;;;;5073762;28;20020;-27
2023/12/02 04:16:54;;;;;;;32.37;13.60;;;;;;;;;;5073507;28;20013;-27
2023/12/02 04:19:19;;;;;;;35.13;13.60;;;;;;;;;;5073956;28;20279;-27
2023/12/02 04:21:45;;;;;;;32.92;13.10;;;;;;;;;;5073912;28;20013;-27
2023/12/02 04:24:10;;;;;;;32.55;13.35;;;;;;;;;;5073659;28;20012;-27
2023/12/02 04:26:36;;;;;;;31.33;12.20;;;;;;;;;;5073366;28;20016;-27
2023/12/02 04:29:02;;;;;;;32.60;13.70;;;;;;;;;;5072115;28;20306;-27
2023/12/02 04:31:27;;;;;;;33.33;13.23;;;;;;;;;;5073299;28;20013;-27
2023/12/02 04:33:52;;;;;;;29.73;12.77;;;;;;;;;;5073880;28;20020;-27
2023/12/02 04:36:17;;;;;;;31.73;13.00;;;;;;;;;;5073346;28;20483;-27
2023/12/02 04:38:42;;;;;;;35.58;12.73;;;;;;;;;;5073312;28;20021;-27
2023/12/02 04:41:08;;;;;;;33.47;13.18;;;;;;;;;;5073162;28;20085;-27
2023/12/02 04:43:33;;;;;;;33.63;13.27;;;;;;;;;;5073238;28;20017;-27
2023/12/02 04:45:58;;;;;;;33.15;12.98;;;;;;;;;;5073437;28;20346;-27
2023/12/02 04:48:23;;;;;;;30.47;13.27;;;;;;;;;;5073188;28;20020;-27
2023/12/02 04:50:48;;;;;;;35.20;14.10;;;;;;;;;;5073134;28;20262;-27
2023/12/02 04:53:13;;;;;;;33.55;13.23;;;;;;;;;;5073683;28;20021;-27
2023/12/02 04:55:39;;;;;;;34.65;13.80;;;;;;;;;;5073114;28;20081;-27
2023/12/02 04:58:04;;;;;;;34.53;13.27;;;;;;;;;;5073107;28;20021;-27
2023/12/02 05:00:29;;;;;;;33.35;13.93;;;;;;;;;;5072829;28;20072;-27
2023/12/02 05:02:54;;;;;;;32.70;12.75;;;;;;;;;;5073272;28;20024;-27
2023/12/02 05:05:20;;;;;;;35.05;13.63;;;;;;;;;;5074617;28;20016;-27
2023/12/02 05:07:45;;;;;;;34.42;13.13;;;;;;;;;;5077436;28;20020;-27
2023/12/02 05:10:10;;;;;;;35.10;13.80;;;;;;;;;;5076893;28;20028;-27
2023/12/02 05:12:36;;;;;;;37.47;13.85;;;;;;;;;;5077289;28;20273;-27
2023/12/02 05:15:01;;;;;;;34.03;14.20;;;;;;;;;;5077031;28;20460;-27
2023/12/02 05:17:27;;;;;;;41.38;14.50;;;;;;;;;;5076765;28;20024;-27
2023/12/02 05:19:52;;;;;;;37.55;14.55;;;;;;;;;;5076141;28;20146;-27
2023/12/02 05:22:17;;;;;;;37.97;14.20;;;;;;;;;;5077163;28;20008;-27
2023/12/02 05:24:43;;;;;;;35.25;13.80;;;;;;;;;;5076850;28;20271;-27
2023/12/02 05:27:08;;;;;;;38.90;15.07;;;;;;;;;;5077139;28;20023;-27
2023/12/02 05:29:33;;;;;;;36.95;14.25;;;;;;;;;;5076520;28;20605;-27
2023/12/02 05:31:58;;;;;;;35.43;13.87;;;;;;;;;;5075326;28;20074;-27
2023/12/02 05:34:24;;;;;;;32.30;13.70;;;;;;;;;;5075863;28;20817;-27
2023/12/02 05:36:49;;;;;;;40.15;14.43;;;;;;;;;;5076131;28;20079;-27
2023/12/02 05:39:14;;;;;;;35.58;13.38;;;;;;;;;;5075812;28;20016;-27
2023/12/02 05:41:40;;;;;;;38.78;14.93;;;;;;;;;;5075615;28;20024;-27
2023/12/02 05:44:06;;;;;;;38.25;14.07;;;;;;;;;;5076196;28;20124;-27
2023/12/02 05:46:31;;;;;;;39.07;14.93;;;;;;;;;;5076193;28;20058;-27
2023/12/02 05:48:56;;;;;;;36.83;14.15;;;;;;;;;;5076632;28;20255;-27
2023/12/02 05:51:22;;;;;;;39.95;15.15;;;;;;;;;;5076288;28;20345;-27
2023/12/02 05:53:47;;;;;;;39.00;14.60;;;;;;;;;;5076292;28;20379;-27
2023/12/02 05:56:13;;;;;;;37.40;14.73;;;;;;;;;;5076026;28;20031;-27
2023/12/02 05:58:38;;;;;;;37.75;14.82;;;;;;;;;;5076739;28;20258;-27
2023/12/02 06:01:03;;;;;;;37.00;14.80;;;;;;;;;;5075584;28;20047;-27
2023/12/02 06:03:28;;;;;;;39.13;14.90;;;;;;;;;;5075802;28;20107;-27
2023/12/02 06:05:53;;;;;;;33.60;13.70;;;;;;;;;;5076389;28;20074;-27
2023/12/02 06:08:19;;;;;;;37.45;14.38;;;;;;;;;;5076059;28;20519;-27
2023/12/02 06:10:44;;;;;;;36.13;14.57;;;;;;;;;;5075693;28;20100;-27
2023/12/02 06:13:09;;;;;;;37.95;13.45;;;;;;;;;;5076198;28;20028;-27
2023/12/02 06:15:34;;;;;;;37.00;15.03;;;;;;;;;;5075662;28;20023;-27
2023/12/02 06:18:00;;;;;;;40.80;15.13;;;;;;;;;;5075165;28;20338;-27
2023/12/02 06:20:26;;;;;;;40.80;14.73;;;;;;;;;;5076048;28;20317;-27
2023/12/02 06:22:51;;;;;;;41.10;14.70;;;;;;;;;;5075815;28;20467;-27
2023/12/02 06:25:16;;;;;;;39.88;13.98;;;;;;;;;;5075791;28;20032;-27
2023/12/02 06:27:42;;;;;;;39.65;14.63;;;;;;;;;;5075431;28;20475;-27
2023/12/02 06:30:08;;;;;;;42.80;14.75;;;;;;;;;;5075615;28;20028;-27
2023/12/02 06:32:33;;;;;;;38.65;14.63;;;;;;;;;;5075594;28;20460;-27
2023/12/02 06:34:58;;;;;;;42.15;14.88;;;;;;;;;;5075864;28;20371;-27
2023/12/02 06:37:24;;;;;;;38.53;14.83;;;;;;;;;;5075271;28;20376;-27
2023/12/02 06:39:49;;;;;;;38.33;13.70;;;;;;;;;;5075254;28;20303;-27
2023/12/02 06:42:14;;;;;;;38.42;14.52;;;;;;;;;;5075402;28;20013;-27
2023/12/02 06:44:40;;;;;;;38.83;14.75;;;;;;;;;;5075118;28;20099;-27
2023/12/02 06:47:06;;;;;;;34.22;13.55;;;;;;;;;;5075573;28;20021;-27
2023/12/02 06:49:31;;;;;;;34.78;13.82;;;;;;;;;;5074952;28;20047;-27
2023/12/02 06:51:56;;;;;;;39.83;14.77;;;;;;;;;;5075183;28;20025;-27
2023/12/02 06:54:21;;;;;;;38.63;14.00;;;;;;;;;;5074896;28;20099;-27
2023/12/02 06:56:47;;;;;;;37.60;14.83;;;;;;;;;;5075467;28;20086;-27
2023/12/02 06:59:12;;;;;;;40.67;15.80;;;;;;;;;;5074642;28;20283;-27
2023/12/02 07:01:37;;;;;;;39.27;14.37;;;;;;;;;;5074667;28;20417;-27
2023/12/02 07:04:02;;;;;;;38.08;14.35;;;;;;;;;;5075187;28;20267;-27
2023/12/02 07:06:28;;;;;;;39.13;15.13;;;;;;;;;;5074680;28;20391;-27
2023/12/02 07:08:54;;;;;;;42.45;15.40;;;;;;;;;;5074677;28;20009;-27
2023/12/02 07:11:20;;;;;;;40.22;14.60;;;;;;;;;;5074385;28;20025;-27
2023/12/02 07:13:45;;;;;;;40.10;14.18;;;;;;;;;;5074754;28;20029;-27
2023/12/02 07:16:10;;;;;;;41.73;15.43;;;;;;;;;;5074420;28;20027;-27
2023/12/02 07:18:36;;;;;;;43.70;15.73;;;;;;;;;;5074714;28;20357;-27
2023/12/02 07:21:01;;;;;;;38.70;15.00;;;;;;;;;;5074847;28;20024;-27
2023/12/02 07:23:28;;;;;;;42.83;14.32;;;;;;;;;;5074404;28;20048;-27
2023/12/02 07:25:53;;;;;;;40.70;15.63;;;;;;;;;;5072995;28;20024;-27
2023/12/02 07:28:19;;;;;;;39.97;15.30;;;;;;;;;;5074019;28;20363;-27
2023/12/02 07:30:44;;;;;;;42.13;15.23;;;;;;;;;;5074157;28;20025;-27
2023/12/02 07:33:09;;;;;;;42.70;15.15;;;;;;;;;;5074724;28;20017;-27
2023/12/02 07:35:35;;;;;;;36.92;14.45;;;;;;;;;;5074339;28;20104;-27
2023/12/02 07:38:00;;;;;;;36.22;14.85;;;;;;;;;;5073978;28;20086;-27
2023/12/02 07:40:25;;;;;;;40.10;14.80;;;;;;;;;;5074162;28;20093;-27
2023/12/02 07:42:50;;;;;;;40.80;14.77;;;;;;;;;;5073912;28;20012;-27
2023/12/02 07:45:16;;;;;;;38.80;15.82;;;;;;;;;;5073952;28;20031;-27
2023/12/02 07:47:41;;;;;;;43.60;14.55;;;;;;;;;;5074399;28;20021;-27
2023/12/02 07:50:07;;;;;;;39.15;15.02;;;;;;;;;;5073882;28;20394;-27
2023/12/02 07:52:32;;;;;;;39.97;15.23;;;;;;;;;;5074011;28;20055;-27
2023/12/02 07:54:57;;;;;;;38.40;15.25;;;;;;;;;;5073872;28;20399;-32
2023/12/02 07:57:22;;;;;;;38.90;15.48;;;;;;;;;;5073736;28;20042;-27
2023/12/02 07:59:48;;;;;;;40.87;15.93;;;;;;;;;;5073396;28;20553;-27
2023/12/02 08:02:13;;;;;;;39.75;15.02;;;;;;;;;;5073688;28;20342;-27
2023/12/02 08:04:38;;;;;;;42.20;15.30;;;;;;;;;;5073729;28;20067;-27
2023/12/02 08:07:03;;;;;;;40.07;15.73;;;;;;;;;;5074187;28;20020;-27
2023/12/02 08:09:28;;;;;;;38.45;15.55;;;;;;;;;;5074140;28;20717;-27
2023/12/02 08:11:54;;;;;;;38.15;14.40;;;;;;;;;;5073720;28;20048;-28
2023/12/02 08:14:19;;;;;;;40.92;15.75;;;;;;;;;;5073045;28;20095;-27
2023/12/02 08:16:44;;;;;;;43.13;16.60;;;;;;;;;;5073028;28;20146;-27
2023/12/02 08:19:09;;;;;;;46.20;15.35;;;;;;;;;;5073129;28;20259;-27
2023/12/02 08:21:34;;;;;;;43.45;15.82;;;;;;;;;;5073901;28;20027;-27
2023/12/02 08:23:59;;;;;;;39.03;15.45;;;;;;;;;;5073945;28;20033;-27
2023/12/02 08:26:25;;;;;;;39.60;15.03;;;;;;;;;;5073488;28;20012;-27
2023/12/02 08:28:50;;;;;;;40.73;15.67;;;;;;;;;;5073881;28;20389;-27
2023/12/02 08:31:15;;;;;;;38.88;14.98;;;;;;;;;;5072020;28;20622;-28
2023/12/02 08:33:40;;;;;;;42.28;16.48;;;;;;;;;;5073279;28;20380;-27
2023/12/02 08:36:06;;;;;;;42.35;16.73;;;;;;;;;;5073601;28;20038;-27
2023/12/02 08:38:31;;;;;;;43.72;16.40;;;;;;;;;;5074283;28;20012;-27
2023/12/02 08:40:57;;;;;;;48.10;17.87;;;;;;;;;;5075987;28;20021;-27
2023/12/02 08:43:22;;;;;;;44.20;16.98;;;;;;;;;;5077659;28;20273;-27
2023/12/02 08:45:47;;;;;;;41.55;15.82;;;;;;;;;;5077289;28;20095;-27
2023/12/02 08:48:12;;;;;;;39.70;16.23;;;;;;;;;;5077839;28;20036;-27
2023/12/02 08:50:37;;;;;;;44.92;15.65;;;;;;;;;;5077239;28;20065;-27
2023/12/02 08:53:03;;;;;;;41.60;16.57;;;;;;;;;;5077173;28;20025;-27
2023/12/02 08:55:28;;;;;;;44.78;16.52;;;;;;;;;;5076885;28;20265;-27
2023/12/02 08:57:53;;;;;;;41.23;16.40;;;;;;;;;;5076922;28;20023;-27
2023/12/02 09:00:18;;;;;;;37.92;15.90;;;;;;;;;;5076507;28;20301;-27
2023/12/02 09:02:43;;;;;;;45.03;17.60;;;;;;;;;;5076496;28;20017;-27
2023/12/02 09:05:09;;;;;;;37.53;15.40;;;;;;;;;;5077216;28;20103;-27
2023/12/02 09:07:34;;;;;;;41.88;16.50;;;;;;;;;;5076917;28;20744;-28
2023/12/02 09:09:59;;;;;;;43.25;17.08;;;;;;;;;;5076836;28;20068;-27
2023/12/02 09:12:24;;;;;;;43.85;17.10;;;;;;;;;;5076794;28;20531;-27
2023/12/02 09:15:03;;;;;;;39.88;15.77;;;;;;;;;;5077279;28;20029;-27
2023/12/02 09:17:44;;;;;;;43.28;16.88;;;;;;;;;;5076962;28;20542;-27
2023/12/02 09:20:29;;;;;;;41.05;16.75;;;;;;;;;;5076532;28;20463;-27
2023/12/02 09:22:55;;;;;;;40.28;16.30;;;;;;;;;;5076622;28;20027;-27
2023/12/02 09:25:30;;;;;;;39.63;15.75;;;;;;;;;;5076850;28;20016;-27
2023/12/02 09:27:55;;;;;;;45.28;17.17;;;;;;;;;;5077044;28;20044;-27
2023/12/02 09:30:21;;;;;;;48.83;18.30;;;;;;;;;;5076704;28;20046;-27
2023/12/02 09:32:47;;;;;;;44.40;17.60;;;;;;;;;;5076632;28;20291;-27
2023/12/02 09:35:12;;;;;;;40.58;16.10;;;;;;;;;;5076601;28;20487;-27
2023/12/02 09:37:57;;;;;;;40.90;16.67;;;;;;;;;;5076342;28;20321;-26
2023/12/02 09:40:25;;;;;;;47.65;16.58;;;;;;;;;;5076191;28;20027;-26
2023/12/02 09:42:54;;;;;;;41.15;16.75;;;;;;;;;;5076434;28;20032;-27
2023/12/02 09:45:27;;;;;;;44.92;17.40;;;;;;;;;;5076102;28;20099;-27
2023/12/02 09:47:58;;;;;;;44.63;16.40;;;;;;;;;;5076066;28;20024;-26
2023/12/02 09:50:27;;;;;;;42.58;16.30;;;;;;;;;;5076295;28;20103;-26
2023/12/02 09:53:05;;;;;;;47.15;17.10;;;;;;;;;;5076215;28;20016;-26
2023/12/02 09:55:36;;;;;;;43.47;17.08;;;;;;;;;;5076498;28;20421;-26
2023/12/02 09:58:07;;;;;;;42.55;16.65;;;;;;;;;;5075871;28;20096;-26
2023/12/02 10:00:39;;;;;;;46.80;17.08;;;;;;;;;;5075679;28;20133;-27
2023/12/02 10:03:04;;;;;;;47.80;16.38;;;;;;;;;;5075749;28;20089;-26
2023/12/02 10:05:37;;;;;;;42.15;16.45;;;;;;;;;;5075720;28;20117;-27
2023/12/02 10:08:12;;;;;;;43.13;16.67;;;;;;;;;;5075767;28;20113;-26
2023/12/02 10:10:53;;;;;;;41.67;16.67;;;;;;;;;;5075705;28;20021;-25
2023/12/02 10:13:20;;;;;;;44.17;16.88;;;;;;;;;;5075605;28;20364;-26
2023/12/02 10:15:47;;;;;;;43.28;16.38;;;;;;;;;;5075556;28;20020;-26
2023/12/02 10:18:12;;;;;;;47.58;16.75;;;;;;;;;;5075616;28;20464;-26
2023/12/02 10:20:39;;;;;;;41.35;16.23;;;;;;;;;;5075565;28;20013;-26
2023/12/02 10:23:25;;;;;;;40.28;16.33;;;;;;;;;;5075312;28;20016;-27
2023/12/02 10:26:03;;;;;;;42.67;17.08;;;;;;;;;;5054497;28;20033;-26
2023/12/02 10:28:42;;;;;;;47.25;17.00;;;;;;;;;;5075893;28;20459;-27
2023/12/02 10:31:11;;;;;;;43.83;17.50;;;;;;;;;;5076397;28;20032;-26
2023/12/02 10:33:45;;;;;;;44.00;16.98;;;;;;;;;;5075494;28;20024;-26
2023/12/02 10:36:10;;;;;;;43.38;16.55;;;;;;;;;;5074634;28;20112;-27
2023/12/02 10:38:50;;;;;;;42.08;17.25;;;;;;;;;;5071568;28;20443;-27
2023/12/02 10:41:45;;;;;;;43.58;16.88;;;;;;;;;;5072958;28;20020;-27
2023/12/02 10:44:10;;;;;;;41.67;15.73;;;;;;;;;;5073567;28;20048;-28
2023/12/02 10:46:37;;;;;;;42.85;17.50;;;;;;;;;;5073697;28;20040;-26
2023/12/02 10:49:03;;;;;;;42.72;16.67;;;;;;;;;;5073478;28;20077;-27
2023/12/02 10:51:30;;;;;;;45.38;17.88;;;;;;;;;;5073812;28;20103;-27
2023/12/02 10:53:58;;;;;;;40.17;17.90;;;;;;;;;;5074817;28;20023;-27
2023/12/02 10:56:23;;;;;;;48.35;18.85;;;;;;;;;;5074899;28;20020;-27
2023/12/02 10:58:49;;;;;;;41.10;17.13;;;;;;;;;;5074625;28;20047;-27
2023/12/02 11:01:18;;;;;;;38.72;17.63;;;;;;;;;;5074674;28;20024;-27
2023/12/02 11:04:01;;;;;;;35.15;16.52;;;;;;;;;;5074066;28;20056;-27
2023/12/02 11:06:53;;;;;;;41.40;18.33;;;;;;;;;;5073482;28;20017;-27
2023/12/02 11:09:39;;;;;;;38.72;17.60;;;;;;;;;;5072341;28;20033;-27
2023/12/02 11:12:10;;;;;;;41.67;17.23;;;;;;;;;;5074439;28;20077;-27
2023/12/02 11:14:38;;;;;;;40.10;17.95;;;;;;;;;;5074452;28;20463;-27
2023/12/02 11:17:06;;;;;;;41.22;17.70;;;;;;;;;;5074569;28;20035;-27
2023/12/02 11:19:43;;;;;;;37.58;17.05;;;;;;;;;;5074218;28;20036;-27
2023/12/02 11:22:31;;;;;;;41.03;17.10;;;;;;;;;;5074213;28;20475;-27
2023/12/02 11:24:56;;;;;;;42.30;17.92;;;;;;;;;;5074064;28;20021;-27
2023/12/02 11:27:21;;;;;;;38.50;16.90;;;;;;;;;;5074427;28;20026;-27
2023/12/02 11:29:56;;;;;;;39.80;16.48;;;;;;;;;;5074595;28;20254;-27
2023/12/02 11:32:26;;;;;;;38.95;16.70;;;;;;;;;;5074245;28;20271;-27
2023/12/02 11:35:07;;;;;;;38.92;16.88;;;;;;;;;;5073909;28;20356;-28
2023/12/02 11:37:38;;;;;;;38.15;16.98;;;;;;;;;;5074253;28;20409;-27
2023/12/02 11:40:12;;;;;;;38.40;16.83;;;;;;;;;;5074109;28;20364;-27
2023/12/02 11:42:56;;;;;;;37.58;16.13;;;;;;;;;;5074023;28;20066;-27
2023/12/02 11:45:26;;;;;;;44.33;17.80;;;;;;;;;;5074067;28;20016;-27
2023/12/02 11:48:04;;;;;;;43.25;18.00;;;;;;;;;;5074025;28;20009;-27
2023/12/02 11:50:39;;;;;;;38.60;17.40;;;;;;;;;;5074027;28;20521;-27
2023/12/02 11:53:09;;;;;;;39.00;17.80;;;;;;;;;;5074039;28;20029;-27
2023/12/02 11:55:42;;;;;;;44.08;17.95;;;;;;;;;;5074229;28;20448;-27
2023/12/02 11:58:13;;;;;;;36.95;18.45;;;;;;;;;;5073562;28;20035;-27
2023/12/02 12:00:45;;;;;;;37.08;17.80;;;;;;;;;;5073537;28;20540;-27
2023/12/02 12:03:13;;;;;;;35.13;18.95;;;;;;;;;;5074126;28;20055;-28
2023/12/02 12:05:57;;;;;;;33.97;19.25;;;;;;;;;;5073701;28;20052;-27
2023/12/02 12:08:22;;;;;;;33.30;18.40;;;;;;;;;;5073679;28;20088;-27
2023/12/02 12:10:49;;;;;;;36.13;18.20;;;;;;;;;;5073619;28;20490;-27
2023/12/02 12:13:18;;;;;;;39.25;18.25;;;;;;;;;;5073830;28;20375;-27
2023/12/02 12:15:43;;;;;;;41.58;19.10;;;;;;;;;;5071515;28;20023;-26
2023/12/02 12:18:10;;;;;;;40.00;18.55;;;;;;;;;;5073449;28;20016;-27
2023/12/02 12:20:35;;;;;;;39.75;17.48;;;;;;;;;;5073246;28;20024;-27
2023/12/02 12:23:01;;;;;;;38.07;18.13;;;;;;;;;;5073719;28;20105;-27
2023/12/02 12:25:29;;;;;;;42.33;16.93;;;;;;;;;;5073315;28;20856;-27
2023/12/02 12:27:59;;;;;;;37.58;17.45;;;;;;;;;;5073188;28;20261;-27
2023/12/02 12:30:24;;;;;;;41.75;16.75;;;;;;;;;;5073504;28;20017;-26
2023/12/02 12:32:50;;;;;;;38.80;17.13;;;;;;;;;;5073581;28;20017;-27
2023/12/02 12:35:15;;;;;;;36.05;16.88;;;;;;;;;;5073249;28;20087;-27
2023/12/02 12:37:40;;;;;;;40.53;17.97;;;;;;;;;;5073332;28;20360;-27
2023/12/02 12:40:10;;;;;;;37.72;17.50;;;;;;;;;;5073317;28;20266;-27
2023/12/02 12:42:35;;;;;;;40.17;16.80;;;;;;;;;;5073495;28;20418;-27
2023/12/02 12:45:00;;;;;;;39.60;17.37;;;;;;;;;;5073179;28;20044;-27
2023/12/02 12:47:27;;;;;;;38.92;18.05;;;;;;;;;;5073681;28;20258;-27
2023/12/02 12:49:54;;;;;;;42.20;17.98;;;;;;;;;;5073125;28;20020;-27
2023/12/02 12:52:19;;;;;;;44.22;18.50;;;;;;;;;;5072491;28;20025;-27
2023/12/02 12:54:47;;;;;;;41.15;18.33;;;;;;;;;;5072833;28;20065;-27
2023/12/02 12:57:18;;;;;;;42.42;18.17;;;;;;;;;;5072442;28;20455;-27
2023/12/02 12:59:47;;;;;;;42.10;18.27;;;;;;;;;;5072357;28;20049;-27
2023/12/02 13:02:35;;;;;;;46.95;18.70;;;;;;;;;;5072265;28;20074;-26
2023/12/02 13:05:04;;;;;;;42.72;18.80;;;;;;;;;;5072435;28;20023;-27
2023/12/02 13:07:44;;;;;;;41.30;18.08;;;;;;;;;;5073301;28;20024;-27
2023/12/02 13:10:13;;;;;;;40.40;17.70;;;;;;;;;;5073394;28;20399;-27
2023/12/02 13:12:40;;;;;;;42.05;18.83;;;;;;;;;;5071511;28;20025;-27
2023/12/02 13:15:08;;;;;;;42.85;17.73;;;;;;;;;;5072831;28;20546;-27
2023/12/02 13:17:33;;;;;;;43.90;18.30;;;;;;;;;;5073299;28;20048;-27
2023/12/02 13:20:00;;;;;;;41.42;17.63;;;;;;;;;;5072752;28;20051;-27
2023/12/02 13:22:27;;;;;;;42.97;17.42;;;;;;;;;;5072690;28;20020;-27
2023/12/02 13:25:10;;;;;;;43.50;17.60;;;;;;;;;;5071503;28;20357;-27
2023/12/02 13:27:36;;;;;;;42.13;17.67;;;;;;;;;;5076517;28;20036;-27
2023/12/02 13:30:05;;;;;;;39.58;18.70;;;;;;;;;;5076484;28;20403;-27
2023/12/02 13:32:33;;;;;;;47.45;18.65;;;;;;;;;;5077200;28;20023;-27
2023/12/02 13:35:05;;;;;;;43.83;17.75;;;;;;;;;;5076916;28;20023;-27
2023/12/02 13:37:51;;;;;;;42.50;18.57;;;;;;;;;;5076324;28;20017;-27
2023/12/02 13:40:18;;;;;;;49.25;20.70;;;;;;;;;;5076149;28;20031;-26
2023/12/02 13:42:46;;;;;;;46.15;19.25;;;;;;;;;;5076220;28;20024;-27
2023/12/02 13:45:13;;;;;;;51.13;19.40;;;;;;;;;;5076495;28;20027;-27
2023/12/02 13:47:44;;;;;;;43.22;17.45;;;;;;;;;;5076165;28;20049;-27
2023/12/02 13:50:11;;;;;;;45.38;19.40;;;;;;;;;;5076010;28;20021;-27
2023/12/02 13:52:46;;;;;;;47.28;19.13;;;;;;;;;;5075982;28;20147;-27
2023/12/02 13:55:34;;;;;;;40.10;18.35;;;;;;;;;;5074680;28;20025;-27
2023/12/02 13:58:21;;;;;;;48.17;18.70;;;;;;;;;;5076185;28;20016;-28
2023/12/02 14:01:02;;;;;;;42.72;18.00;;;;;;;;;;5075605;28;20040;-27
2023/12/02 14:03:45;;;;;;;43.80;17.63;;;;;;;;;;5076091;28;20375;-27
2023/12/02 14:06:17;;;;;;;46.13;19.73;;;;;;;;;;5075758;28;20104;-27
2023/12/02 14:08:45;;;;;;;40.60;17.73;;;;;;;;;;5076231;28;20058;-27
2023/12/02 14:11:14;;;;;;;44.63;18.08;;;;;;;;;;5075553;28;20425;-27
2023/12/02 14:13:45;;;;;;;41.97;19.08;;;;;;;;;;5075761;28;20035;-27
2023/12/02 14:16:22;;;;;;;46.28;18.05;;;;;;;;;;5075601;28;20056;-27